createdAt,value
2019-03-26T00:00:55.900Z,28.07
2019-03-26T00:01:55.907Z,28.17
2019-03-26T00:02:55.864Z,28.27
2019-03-26T00:04:05.180Z,28.27
2019-03-26T00:04:56.845Z,28.27
2019-03-26T00:05:55.826Z,28.27
2019-03-26T00:06:55.827Z,28.27
2019-03-26T00:07:55.975Z,28.17
2019-03-26T00:08:55.806Z,28.07
2019-03-26T00:09:55.794Z,28.27
2019-03-26T00:10:55.823Z,28.27
2019-03-26T00:11:55.796Z,28.18
2019-03-26T00:12:55.757Z,28.27
2019-03-26T00:13:57.727Z,27.97
2019-03-26T00:14:55.735Z,28.37
2019-03-26T00:15:55.738Z,28.37
2019-03-26T00:16:55.702Z,28.17
2019-03-26T00:17:55.698Z,28.17
2019-03-26T00:18:55.687Z,28.37
2019-03-26T00:19:55.701Z,28.27
2019-03-26T00:20:55.658Z,28.27
2019-03-26T00:21:55.650Z,28.17
2019-03-26T00:22:55.651Z,28.27
2019-03-26T00:23:55.645Z,28.37
2019-03-26T00:24:55.642Z,28.28
2019-03-26T00:25:55.606Z,28.37
2019-03-26T00:26:55.594Z,28.37
2019-03-26T00:27:55.605Z,27.87
2019-03-26T00:28:55.570Z,28.37
2019-03-26T00:29:55.587Z,28.48
2019-03-26T00:30:55.568Z,28.37
2019-03-26T00:31:55.545Z,28.97
2019-03-26T00:32:55.529Z,27.87
2019-03-26T00:33:55.524Z,27.57
2019-03-26T00:34:55.503Z,28.48
2019-03-26T00:35:55.508Z,27.67
2019-03-26T00:36:55.480Z,28.47
2019-03-26T00:37:55.472Z,28.97
2019-03-26T00:38:55.458Z,27.67
2019-03-26T00:39:55.444Z,27.67
2019-03-26T00:40:55.437Z,27.68
2019-03-26T00:41:55.423Z,28.78
2019-03-26T00:42:55.448Z,28.68
2019-03-26T00:43:55.407Z,27.67
2019-03-26T00:44:55.403Z,28.37
2019-03-26T00:45:55.381Z,27.87
2019-03-26T00:46:55.372Z,28.07
2019-03-26T00:47:55.361Z,27.77
2019-03-26T00:48:55.347Z,28.07
2019-03-26T00:49:55.343Z,28.37
2019-03-26T00:50:55.351Z,28.47
2019-03-26T00:51:55.358Z,28.68
2019-03-26T00:52:55.323Z,28.07
2019-03-26T00:53:55.293Z,28.77
2019-03-26T00:54:55.281Z,27.87
2019-03-26T00:55:55.275Z,27.88
2019-03-26T00:56:55.258Z,27.88
2019-03-26T00:57:55.679Z,27.88
2019-03-26T00:58:55.239Z,28.67
2019-03-26T00:59:55.244Z,27.78
2019-03-26T01:00:55.224Z,28.37
2019-03-26T01:01:55.219Z,27.78
2019-03-26T01:02:55.209Z,27.88
2019-03-26T01:03:55.317Z,27.88
2019-03-26T01:04:55.179Z,28.98
2019-03-26T01:05:55.168Z,28.38
2019-03-26T01:06:55.155Z,27.88
2019-03-26T01:07:55.157Z,28.08
2019-03-26T01:08:55.121Z,27.98
2019-03-26T01:09:55.128Z,27.68
2019-03-26T01:10:55.107Z,27.68
2019-03-26T01:11:55.091Z,28.68
2019-03-26T01:12:55.094Z,28.38
2019-03-26T01:13:55.082Z,27.88
2019-03-26T01:14:55.060Z,28.18
2019-03-26T01:15:55.069Z,28.28
2019-03-26T01:16:55.044Z,27.88
2019-03-26T01:17:55.031Z,28.08
2019-03-26T01:18:55.019Z,27.88
2019-03-26T01:19:55.005Z,28.08
2019-03-26T01:20:54.998Z,28.08
2019-03-26T01:21:54.992Z,27.88
2019-03-26T01:22:54.983Z,27.88
2019-03-26T01:23:54.960Z,28.38
2019-03-26T01:24:55.011Z,28.38
2019-03-26T01:25:54.938Z,28.08
2019-03-26T01:26:54.937Z,27.88
2019-03-26T01:27:54.945Z,28.78
2019-03-26T01:28:54.900Z,28.38
2019-03-26T01:29:54.915Z,28.18
2019-03-26T01:30:54.907Z,28.08
2019-03-26T01:31:54.878Z,28.08
2019-03-26T01:32:54.867Z,28.08
2019-03-26T01:33:54.868Z,28.08
2019-03-26T01:34:54.837Z,28.28
2019-03-26T01:35:54.895Z,28.28
2019-03-26T01:36:54.830Z,28.38
2019-03-26T01:37:54.823Z,28.18
2019-03-26T01:38:54.819Z,28.08
2019-03-26T01:39:54.884Z,28.08
2019-03-26T01:40:54.771Z,28.38
2019-03-26T01:41:54.760Z,28.28
2019-03-26T01:42:54.771Z,28.08
2019-03-26T01:43:54.782Z,28.08
2019-03-26T01:44:54.740Z,28.28
2019-03-26T01:45:54.723Z,28.18
2019-03-26T01:46:54.702Z,28.08
2019-03-26T01:47:54.823Z,28.28
2019-03-26T01:48:54.692Z,28.08
2019-03-26T01:49:54.695Z,28.28
2019-03-26T01:50:54.680Z,28.08
2019-03-26T01:51:54.657Z,27.98
2019-03-26T01:52:54.649Z,27.98
2019-03-26T01:53:54.689Z,28.08
2019-03-26T01:54:54.628Z,28.08
2019-03-26T01:55:54.606Z,28.08
2019-03-26T01:56:54.593Z,27.78
2019-03-26T01:57:54.605Z,27.98
2019-03-26T01:58:54.573Z,28.08
2019-03-26T01:59:54.562Z,28.08
2019-03-26T02:00:54.568Z,27.98
2019-03-26T02:01:54.537Z,27.98
2019-03-26T02:02:54.539Z,28.18
2019-03-26T02:03:54.518Z,28.08
2019-03-26T02:05:00.155Z,27.98
2019-03-26T02:05:55.516Z,27.98
2019-03-26T02:06:54.505Z,28.08
2019-03-26T02:07:54.515Z,28.08
2019-03-26T02:08:54.475Z,27.98
2019-03-26T02:09:54.482Z,28.18
2019-03-26T02:10:54.450Z,28.18
2019-03-26T02:11:54.436Z,28.38
2019-03-26T02:12:54.424Z,28.48
2019-03-26T02:13:54.411Z,28.28
2019-03-26T02:14:54.414Z,28.18
2019-03-26T02:15:54.392Z,27.98
2019-03-26T02:16:54.383Z,27.88
2019-03-26T02:17:54.380Z,28.18
2019-03-26T02:18:54.361Z,28.18
2019-03-26T02:19:54.354Z,27.98
2019-03-26T02:20:54.330Z,27.88
2019-03-26T02:21:54.315Z,27.88
2019-03-26T02:22:54.326Z,27.88
2019-03-26T02:23:54.316Z,28.28
2019-03-26T02:24:54.296Z,28.18
2019-03-26T02:25:54.292Z,27.78
2019-03-26T02:26:54.272Z,28.08
2019-03-26T02:27:54.268Z,28.28
2019-03-26T02:28:54.263Z,28.28
2019-03-26T02:29:54.245Z,28.18
2019-03-26T02:30:54.238Z,28.18
2019-03-26T02:31:54.217Z,28.18
2019-03-26T02:32:54.228Z,28.18
2019-03-26T02:33:54.192Z,28.18
2019-03-26T02:34:54.191Z,28.28
2019-03-26T02:35:54.201Z,28.38
2019-03-26T02:36:54.168Z,28.08
2019-03-26T02:37:54.150Z,28.28
2019-03-26T02:38:54.146Z,28.18
2019-03-26T02:39:54.132Z,28.08
2019-03-26T02:40:54.140Z,28.18
2019-03-26T02:41:54.142Z,28.48
2019-03-26T02:42:54.102Z,28.08
2019-03-26T02:43:54.136Z,28.08
2019-03-26T02:44:54.102Z,27.98
2019-03-26T02:45:54.058Z,28.18
2019-03-26T02:46:54.104Z,28.28
2019-03-26T02:47:54.040Z,28.48
2019-03-26T02:48:54.019Z,28.48
2019-03-26T02:49:54.115Z,28.48
2019-03-26T02:50:54.017Z,28.48
2019-03-26T02:51:54.001Z,28.38
2019-03-26T02:52:53.990Z,28.28
2019-03-26T02:53:53.973Z,28.28
2019-03-26T02:54:53.978Z,28.28
2019-03-26T02:55:53.947Z,28.28
2019-03-26T02:56:53.949Z,28.28
2019-03-26T02:57:53.986Z,28.18
2019-03-26T02:58:53.932Z,28.48
2019-03-26T02:59:53.900Z,28.28
2019-03-26T03:00:53.898Z,28.28
2019-03-26T03:01:53.914Z,28.48
2019-03-26T03:02:53.887Z,28.58
2019-03-26T03:03:53.865Z,28.58
2019-03-26T03:04:53.866Z,28.48
2019-03-26T03:05:53.838Z,28.58
2019-03-26T03:06:53.830Z,28.48
2019-03-26T03:07:53.840Z,28.68
2019-03-26T03:08:53.811Z,28.48
2019-03-26T03:09:53.802Z,27.78
2019-03-26T03:10:53.783Z,28.48
2019-03-26T03:11:53.772Z,27.68
2019-03-26T03:12:53.930Z,27.68
2019-03-26T03:13:53.768Z,27.68
2019-03-26T03:14:53.742Z,27.08
2019-03-26T03:15:53.732Z,27.28
2019-03-26T03:16:53.731Z,27.98
2019-03-26T03:17:53.703Z,27.48
2019-03-26T03:18:53.706Z,27.98
2019-03-26T03:19:53.682Z,27.19
2019-03-26T03:20:53.682Z,28.18
2019-03-26T03:21:53.673Z,27.48
2019-03-26T03:22:53.644Z,27.48
2019-03-26T03:23:53.645Z,27.48
2019-03-26T03:24:53.631Z,27.48
2019-03-26T03:25:53.628Z,27.38
2019-03-26T03:26:53.622Z,27.48
2019-03-26T03:27:53.682Z,27.58
2019-03-26T03:28:53.582Z,27.48
2019-03-26T03:29:53.595Z,27.68
2019-03-26T03:30:53.566Z,27.58
2019-03-26T03:31:53.551Z,27.28
2019-03-26T03:32:53.569Z,27.19
2019-03-26T03:33:53.565Z,27.48
2019-03-26T03:34:53.693Z,27.50
2019-03-26T03:35:53.509Z,27.28
2019-03-26T03:36:53.498Z,27.88
2019-03-26T03:37:53.513Z,27.38
2019-03-26T03:38:53.510Z,27.89
2019-03-26T03:39:53.473Z,27.88
2019-03-26T03:40:53.456Z,27.68
2019-03-26T03:41:53.445Z,28.00
2019-03-26T03:42:53.435Z,27.88
2019-03-26T03:43:53.432Z,27.78
2019-03-26T03:44:53.420Z,27.98
2019-03-26T03:45:53.402Z,27.78
2019-03-26T03:46:53.388Z,27.50
2019-03-26T03:47:53.380Z,27.48
2019-03-26T03:48:53.369Z,27.70
2019-03-26T03:49:53.385Z,27.68
2019-03-26T03:50:53.347Z,27.88
2019-03-26T03:51:53.323Z,27.78
2019-03-26T03:52:53.318Z,27.68
2019-03-26T03:53:53.326Z,28.08
2019-03-26T03:54:53.302Z,27.48
2019-03-26T03:55:53.297Z,27.38
2019-03-26T03:56:53.265Z,27.58
2019-03-26T03:57:53.362Z,27.68
2019-03-26T03:58:53.249Z,27.98
2019-03-26T03:59:53.244Z,27.48
2019-03-26T04:00:53.244Z,27.98
2019-03-26T04:01:53.227Z,27.68
2019-03-26T04:02:53.206Z,27.38
2019-03-26T04:03:53.197Z,27.98
2019-03-26T04:04:53.201Z,28.09
2019-03-26T04:06:08.170Z,27.68
2019-03-26T04:06:54.149Z,28.18
2019-03-26T04:07:53.165Z,28.08
2019-03-26T04:08:53.144Z,28.08
2019-03-26T04:09:53.122Z,28.18
2019-03-26T04:10:53.124Z,28.18
2019-03-26T04:11:53.116Z,27.38
2019-03-26T04:12:53.124Z,28.08
2019-03-26T04:13:53.080Z,27.98
2019-03-26T04:14:53.186Z,27.68
2019-03-26T04:15:53.058Z,28.08
2019-03-26T04:16:53.046Z,27.88
2019-03-26T04:17:53.337Z,27.98
2019-03-26T04:18:53.052Z,27.88
2019-03-26T04:19:53.026Z,27.88
2019-03-26T04:20:52.993Z,27.48
2019-03-26T04:21:53.001Z,28.08
2019-03-26T04:22:52.983Z,27.98
2019-03-26T04:23:52.967Z,28.18
2019-03-26T04:24:52.954Z,28.08
2019-03-26T04:25:52.946Z,27.78
2019-03-26T04:26:52.945Z,28.08
2019-03-26T04:27:52.925Z,27.78
2019-03-26T04:28:52.930Z,28.18
2019-03-26T04:29:52.922Z,27.48
2019-03-26T04:30:52.915Z,27.98
2019-03-26T04:31:52.876Z,27.48
2019-03-26T04:32:52.871Z,27.48
2019-03-26T04:33:52.870Z,27.48
2019-03-26T04:34:52.858Z,27.78
2019-03-26T04:35:52.858Z,27.50
2019-03-26T04:36:52.824Z,27.68
2019-03-26T04:37:52.809Z,27.68
2019-03-26T04:38:52.812Z,27.98
2019-03-26T04:39:52.808Z,27.88
2019-03-26T04:40:52.795Z,28.08
2019-03-26T04:41:52.768Z,27.48
2019-03-26T04:42:52.752Z,28.08
2019-03-26T04:43:52.765Z,28.18
2019-03-26T04:44:52.740Z,28.08
2019-03-26T04:45:52.735Z,28.08
2019-03-26T04:46:52.705Z,27.68
2019-03-26T04:47:52.700Z,28.08
2019-03-26T04:48:52.695Z,27.68
2019-03-26T04:49:52.676Z,27.48
2019-03-26T04:50:52.670Z,27.68
2019-03-26T04:51:52.697Z,27.98
2019-03-26T04:52:52.649Z,27.68
2019-03-26T04:53:52.641Z,27.68
2019-03-26T04:54:52.618Z,27.48
2019-03-26T04:55:52.623Z,27.50
2019-03-26T04:56:52.600Z,27.48
2019-03-26T04:57:52.617Z,27.68
2019-03-26T04:58:52.582Z,27.68
2019-03-26T04:59:52.566Z,27.58
2019-03-26T05:00:52.551Z,27.48
2019-03-26T05:01:52.546Z,27.58
2019-03-26T05:02:52.528Z,27.58
2019-03-26T05:03:52.534Z,27.58
2019-03-26T05:04:52.509Z,27.58
2019-03-26T05:05:52.498Z,27.88
2019-03-26T05:06:52.482Z,27.89
2019-03-26T05:07:52.753Z,27.48
2019-03-26T05:08:52.487Z,27.38
2019-03-26T05:09:52.472Z,27.58
2019-03-26T05:10:52.448Z,27.58
2019-03-26T05:11:52.429Z,27.88
2019-03-26T05:12:52.421Z,27.48
2019-03-26T05:13:52.492Z,27.19
2019-03-26T05:14:52.410Z,27.08
2019-03-26T05:15:52.380Z,27.38
2019-03-26T05:16:52.379Z,27.19
2019-03-26T05:17:52.376Z,26.98
2019-03-26T05:18:52.401Z,26.98
2019-03-26T05:19:52.352Z,26.28
2019-03-26T05:20:52.338Z,26.78
2019-03-26T05:21:52.345Z,26.40
2019-03-26T05:22:52.308Z,26.08
2019-03-26T05:23:52.315Z,26.18
2019-03-26T05:24:52.281Z,25.68
2019-03-26T05:25:52.296Z,26.48
2019-03-26T05:26:52.285Z,25.20
2019-03-26T05:27:52.247Z,25.60
2019-03-26T05:28:52.257Z,25.40
2019-03-26T05:29:52.224Z,25.60
2019-03-26T05:30:52.233Z,25.79
2019-03-26T05:31:52.221Z,26.10
2019-03-26T05:32:52.189Z,25.02
2019-03-26T05:33:52.194Z,26.22
2019-03-26T05:34:52.187Z,25.82
2019-03-26T05:35:52.178Z,26.03
2019-03-26T05:36:52.160Z,25.65
2019-03-26T05:37:52.137Z,25.54
2019-03-26T05:38:52.143Z,26.45
2019-03-26T05:39:52.127Z,26.34
2019-03-26T05:40:52.106Z,25.74
2019-03-26T05:41:52.100Z,26.26
2019-03-26T05:42:52.084Z,26.45
2019-03-26T05:43:52.074Z,26.96
2019-03-26T05:44:52.066Z,26.35
2019-03-26T05:45:52.050Z,26.66
2019-03-26T05:46:52.042Z,26.56
2019-03-26T05:47:52.033Z,26.66
2019-03-26T05:48:52.030Z,26.96
2019-03-26T05:49:52.005Z,26.35
2019-03-26T05:50:51.993Z,26.56
2019-03-26T05:51:51.984Z,26.35
2019-03-26T05:52:51.974Z,26.26
2019-03-26T05:53:52.024Z,25.96
2019-03-26T05:54:51.961Z,25.85
2019-03-26T05:55:51.942Z,26.47
2019-03-26T05:56:51.930Z,26.87
2019-03-26T05:57:52.235Z,26.67
2019-03-26T05:58:51.932Z,26.87
2019-03-26T05:59:51.904Z,27.09
2019-03-26T06:00:51.887Z,26.87
2019-03-26T06:01:51.868Z,26.87
2019-03-26T06:02:51.861Z,26.87
2019-03-26T06:03:51.871Z,26.97
2019-03-26T06:04:51.843Z,26.47
2019-03-26T06:05:51.864Z,26.47
2019-03-26T06:07:04.250Z,26.27
2019-03-26T06:07:52.806Z,26.77
2019-03-26T06:08:51.805Z,26.27
2019-03-26T06:09:51.785Z,26.46
2019-03-26T06:10:51.803Z,26.35
2019-03-26T06:11:51.761Z,26.26
2019-03-26T06:12:51.749Z,26.46
2019-03-26T06:13:51.754Z,26.35
2019-03-26T06:14:51.738Z,26.06
2019-03-26T06:15:51.739Z,25.96
2019-03-26T06:16:51.722Z,26.46
2019-03-26T06:17:51.719Z,26.56
2019-03-26T06:18:51.684Z,26.46
2019-03-26T06:19:51.682Z,26.25
2019-03-26T06:20:51.665Z,26.45
2019-03-26T06:21:51.658Z,26.54
2019-03-26T06:22:51.649Z,26.75
2019-03-26T06:23:53.677Z,26.75
2019-03-26T06:24:51.640Z,26.64
2019-03-26T06:25:51.619Z,26.23
2019-03-26T06:26:51.596Z,26.93
2019-03-26T06:27:51.599Z,27.03
2019-03-26T06:28:51.590Z,27.03
2019-03-26T06:29:51.569Z,27.03
2019-03-26T06:30:51.553Z,26.82
2019-03-26T06:31:51.539Z,26.52
2019-03-26T06:32:51.530Z,26.83
2019-03-26T06:33:51.548Z,26.82
2019-03-26T06:34:51.514Z,27.02
2019-03-26T06:35:51.498Z,26.82
2019-03-26T06:36:51.485Z,26.62
2019-03-26T06:37:51.475Z,26.62
2019-03-26T06:38:51.464Z,26.82
2019-03-26T06:39:51.474Z,26.71
2019-03-26T06:40:51.454Z,26.81
2019-03-26T06:41:51.453Z,26.91
2019-03-26T06:42:51.429Z,25.91
2019-03-26T06:43:51.416Z,25.71
2019-03-26T06:44:51.402Z,26.41
2019-03-26T06:45:51.403Z,26.91
2019-03-26T06:46:51.383Z,26.71
2019-03-26T06:47:51.376Z,26.61
2019-03-26T06:48:51.350Z,26.91
2019-03-26T06:49:51.360Z,26.01
2019-03-26T06:50:51.332Z,25.99
2019-03-26T06:51:51.323Z,26.40
2019-03-26T06:52:51.314Z,26.41
2019-03-26T06:53:51.304Z,25.99
2019-03-26T06:54:51.854Z,26.50
2019-03-26T06:55:51.280Z,26.29
2019-03-26T06:56:51.305Z,26.40
2019-03-26T06:57:51.264Z,26.50
2019-03-26T06:58:51.246Z,26.09
2019-03-26T06:59:51.239Z,25.90
2019-03-26T07:00:51.237Z,26.29
2019-03-26T07:01:51.224Z,26.40
2019-03-26T07:02:51.219Z,26.59
2019-03-26T07:03:51.185Z,26.59
2019-03-26T07:04:51.200Z,27.00
2019-03-26T07:05:51.184Z,26.59
2019-03-26T07:06:51.152Z,26.50
2019-03-26T07:07:51.155Z,26.40
2019-03-26T07:08:51.148Z,26.20
2019-03-26T07:09:51.146Z,26.59
2019-03-26T07:10:51.150Z,26.70
2019-03-26T07:11:51.099Z,26.71
2019-03-26T07:12:51.103Z,26.71
2019-03-26T07:13:51.083Z,26.51
2019-03-26T07:14:51.062Z,26.71
2019-03-26T07:15:51.063Z,26.50
2019-03-26T07:16:51.050Z,26.51
2019-03-26T07:17:52.459Z,26.79
2019-03-26T07:18:51.021Z,27.20
2019-03-26T07:19:51.014Z,26.89
2019-03-26T07:20:51.010Z,27.00
2019-03-26T07:21:50.988Z,26.89
2019-03-26T07:22:50.979Z,26.89
2019-03-26T07:23:50.970Z,26.50
2019-03-26T07:24:50.963Z,26.50
2019-03-26T07:25:50.972Z,26.59
2019-03-26T07:26:50.946Z,27.00
2019-03-26T07:27:50.921Z,26.51
2019-03-26T07:28:50.934Z,26.20
2019-03-26T07:29:50.906Z,27.09
2019-03-26T07:30:50.890Z,26.89
2019-03-26T07:31:50.899Z,27.00
2019-03-26T07:32:50.872Z,26.59
2019-03-26T07:33:50.975Z,27.00
2019-03-26T07:34:50.844Z,27.29
2019-03-26T07:35:50.837Z,27.29
2019-03-26T07:36:50.846Z,27.29
2019-03-26T07:37:50.886Z,27.29
2019-03-26T07:38:50.806Z,27.20
2019-03-26T07:39:50.829Z,27.29
2019-03-26T07:40:50.777Z,27.70
2019-03-26T07:41:50.773Z,27.80
2019-03-26T07:42:50.755Z,27.80
2019-03-26T07:43:50.743Z,27.89
2019-03-26T07:44:50.745Z,27.39
2019-03-26T07:45:50.740Z,27.89
2019-03-26T07:46:50.721Z,27.89
2019-03-26T07:47:50.699Z,27.09
2019-03-26T07:48:50.691Z,27.09
2019-03-26T07:49:50.680Z,27.80
2019-03-26T07:50:50.676Z,27.39
2019-03-26T07:51:50.666Z,27.09
2019-03-26T07:52:50.646Z,27.58
2019-03-26T07:53:50.632Z,27.38
2019-03-26T07:54:50.624Z,27.59
2019-03-26T07:55:50.612Z,27.68
2019-03-26T07:56:50.616Z,27.68
2019-03-26T07:57:50.596Z,27.88
2019-03-26T07:58:50.615Z,27.88
2019-03-26T07:59:50.574Z,27.48
2019-03-26T08:00:50.571Z,27.68
2019-03-26T08:01:50.563Z,27.70
2019-03-26T08:02:50.549Z,27.78
2019-03-26T08:03:50.543Z,27.48
2019-03-26T08:04:50.508Z,27.48
2019-03-26T08:05:50.521Z,28.58
2019-03-26T08:06:50.496Z,27.78
2019-03-26T08:07:58.311Z,28.58
2019-03-26T08:08:51.463Z,28.27
2019-03-26T08:09:50.453Z,28.48
2019-03-26T08:10:50.465Z,27.97
2019-03-26T08:11:50.454Z,28.18
2019-03-26T08:12:50.525Z,28.27
2019-03-26T08:13:50.445Z,28.27
2019-03-26T08:14:50.408Z,28.17
2019-03-26T08:15:50.421Z,28.17
2019-03-26T08:16:50.420Z,28.07
2019-03-26T08:17:50.385Z,27.97
2019-03-26T08:18:50.366Z,28.17
2019-03-26T08:19:50.351Z,28.17
2019-03-26T08:20:50.342Z,28.27
2019-03-26T08:21:50.337Z,27.77
2019-03-26T08:22:50.316Z,28.17
2019-03-26T08:23:50.298Z,28.07
2019-03-26T08:24:50.309Z,27.77
2019-03-26T08:25:50.284Z,27.86
2019-03-26T08:26:52.027Z,28.16
2019-03-26T08:27:50.282Z,28.45
2019-03-26T08:28:50.243Z,27.97
2019-03-26T08:29:50.245Z,27.97
2019-03-26T08:30:50.459Z,28.67
2019-03-26T08:31:50.226Z,28.36
2019-03-26T08:32:50.201Z,27.95
2019-03-26T08:33:50.209Z,27.95
2019-03-26T08:34:50.210Z,28.25
2019-03-26T08:35:50.162Z,28.16
2019-03-26T08:36:50.149Z,28.45
2019-03-26T08:37:50.157Z,28.05
2019-03-26T08:38:50.156Z,28.16
2019-03-26T08:39:50.134Z,28.16
2019-03-26T08:40:50.106Z,28.05
2019-03-26T08:41:50.098Z,28.55
2019-03-26T08:42:50.084Z,28.25
2019-03-26T08:43:50.077Z,28.16
2019-03-26T08:44:50.067Z,28.45
2019-03-26T08:45:50.057Z,27.86
2019-03-26T08:46:50.066Z,28.05
2019-03-26T08:47:50.046Z,28.16
2019-03-26T08:48:50.029Z,28.25
2019-03-26T08:49:50.033Z,28.14
2019-03-26T08:50:50.001Z,28.45
2019-03-26T08:51:49.991Z,28.36
2019-03-26T08:52:49.999Z,28.14
2019-03-26T08:53:49.966Z,27.95
2019-03-26T08:54:49.949Z,28.16
2019-03-26T08:55:49.950Z,28.16
2019-03-26T08:56:49.940Z,28.04
2019-03-26T08:57:49.925Z,27.74
2019-03-26T08:58:49.917Z,28.24
2019-03-26T08:59:49.910Z,28.16
2019-03-26T09:00:49.960Z,28.14
2019-03-26T09:01:49.881Z,28.14
2019-03-26T09:02:49.902Z,28.04
2019-03-26T09:03:49.873Z,28.24
2019-03-26T09:04:49.840Z,28.14
2019-03-26T09:05:49.834Z,28.34
2019-03-26T09:06:49.836Z,28.14
2019-03-26T09:07:49.825Z,28.04
2019-03-26T09:08:49.859Z,27.94
2019-03-26T09:09:49.783Z,27.94
2019-03-26T09:10:51.981Z,27.74
2019-03-26T09:11:49.760Z,28.14
2019-03-26T09:12:49.752Z,28.24
2019-03-26T09:13:49.776Z,28.34
2019-03-26T09:14:49.743Z,28.44
2019-03-26T09:15:49.734Z,28.24
2019-03-26T09:16:49.709Z,28.24
2019-03-26T09:17:49.702Z,28.24
2019-03-26T09:18:49.695Z,28.24
2019-03-26T09:19:49.688Z,28.64
2019-03-26T09:20:49.661Z,28.34
2019-03-26T09:21:49.664Z,28.54
2019-03-26T09:22:49.640Z,28.54
2019-03-26T09:23:49.634Z,27.74
2019-03-26T09:24:49.615Z,28.54
2019-03-26T09:25:49.631Z,27.93
2019-03-26T09:26:49.598Z,28.42
2019-03-26T09:27:52.355Z,28.53
2019-03-26T09:28:49.579Z,28.53
2019-03-26T09:29:49.560Z,28.53
2019-03-26T09:30:49.548Z,28.53
2019-03-26T09:31:49.555Z,28.42
2019-03-26T09:32:49.537Z,28.44
2019-03-26T09:33:49.534Z,28.53
2019-03-26T09:34:49.506Z,28.53
2019-03-26T09:35:49.505Z,28.23
2019-03-26T09:36:49.489Z,28.12
2019-03-26T09:37:49.540Z,28.42
2019-03-26T09:38:49.474Z,28.53
2019-03-26T09:39:49.458Z,27.83
2019-03-26T09:40:49.437Z,28.63
2019-03-26T09:41:49.460Z,28.53
2019-03-26T09:42:49.417Z,28.42
2019-03-26T09:43:49.426Z,28.44
2019-03-26T09:44:49.407Z,28.53
2019-03-26T09:45:49.424Z,28.33
2019-03-26T09:46:49.390Z,28.33
2019-03-26T09:47:49.359Z,27.83
2019-03-26T09:48:49.356Z,27.53
2019-03-26T09:49:49.336Z,27.83
2019-03-26T09:50:49.323Z,27.13
2019-03-26T09:51:49.312Z,27.43
2019-03-26T09:52:49.308Z,27.43
2019-03-26T09:53:49.297Z,27.43
2019-03-26T09:54:49.279Z,27.63
2019-03-26T09:55:49.270Z,27.43
2019-03-26T09:56:49.257Z,27.53
2019-03-26T09:57:49.392Z,27.53
2019-03-26T09:58:49.295Z,27.43
2019-03-26T09:59:49.226Z,27.93
2019-03-26T10:00:49.508Z,27.83
2019-03-26T10:01:49.201Z,27.83
2019-03-26T10:02:49.190Z,27.63
2019-03-26T10:03:49.187Z,27.63
2019-03-26T10:04:49.182Z,27.63
2019-03-26T10:05:49.174Z,27.63
2019-03-26T10:06:49.148Z,27.33
2019-03-26T10:07:49.134Z,27.83
2019-03-26T10:08:52.643Z,27.73
2019-03-26T10:09:49.110Z,27.53
2019-03-26T10:10:49.111Z,27.53
2019-03-26T10:11:49.110Z,27.53
2019-03-26T10:12:49.079Z,27.33
2019-03-26T10:13:49.088Z,27.13
2019-03-26T10:14:49.055Z,27.23
2019-03-26T10:15:49.047Z,27.03
2019-03-26T10:16:49.047Z,27.13
2019-03-26T10:17:49.037Z,27.03
2019-03-26T10:18:49.012Z,27.43
2019-03-26T10:19:49.013Z,26.83
2019-03-26T10:20:49.009Z,27.33
2019-03-26T10:21:48.982Z,26.93
2019-03-26T10:22:48.966Z,26.83
2019-03-26T10:23:48.974Z,27.23
2019-03-26T10:24:48.951Z,27.23
2019-03-26T10:25:48.935Z,27.13
2019-03-26T10:26:48.922Z,27.23
2019-03-26T10:27:48.967Z,26.93
2019-03-26T10:28:48.906Z,26.73
2019-03-26T10:29:48.933Z,27.03
2019-03-26T10:30:48.917Z,26.53
2019-03-26T10:31:48.869Z,26.73
2019-03-26T10:32:48.889Z,27.13
2019-03-26T10:33:48.846Z,27.02
2019-03-26T10:34:48.839Z,27.23
2019-03-26T10:35:48.822Z,27.23
2019-03-26T10:36:48.832Z,26.42
2019-03-26T10:37:48.808Z,26.33
2019-03-26T10:38:48.797Z,26.62
2019-03-26T10:39:48.786Z,27.03
2019-03-26T10:40:48.768Z,26.42
2019-03-26T10:41:48.760Z,26.43
2019-03-26T10:42:48.755Z,26.32
2019-03-26T10:43:48.771Z,26.42
2019-03-26T10:44:48.777Z,26.62
2019-03-26T10:45:48.749Z,26.52
2019-03-26T10:46:48.713Z,26.62
2019-03-26T10:47:48.688Z,26.52
2019-03-26T10:48:48.683Z,26.82
2019-03-26T10:49:48.694Z,26.72
2019-03-26T10:50:48.663Z,26.72
2019-03-26T10:51:48.646Z,26.52
2019-03-26T10:52:48.689Z,26.72
2019-03-26T10:53:48.624Z,26.53
2019-03-26T10:54:48.626Z,26.42
2019-03-26T10:55:48.642Z,26.52
2019-03-26T10:56:48.612Z,26.73
2019-03-26T10:57:48.585Z,26.52
2019-03-26T10:58:48.571Z,26.53
2019-03-26T10:59:48.575Z,26.53
2019-03-26T11:00:48.553Z,26.42
2019-03-26T11:01:48.534Z,26.23
2019-03-26T11:02:48.524Z,26.82
2019-03-26T11:03:48.520Z,26.62
2019-03-26T11:04:48.502Z,26.62
2019-03-26T11:05:48.532Z,26.72
2019-03-26T11:06:48.480Z,26.62
2019-03-26T11:07:48.474Z,26.52
2019-03-26T11:08:48.455Z,26.52
2019-03-26T11:09:48.460Z,26.62
2019-03-26T11:10:48.445Z,26.42
2019-03-26T11:11:48.454Z,26.52
2019-03-26T11:12:48.414Z,26.62
2019-03-26T11:13:48.406Z,26.82
2019-03-26T11:14:48.393Z,26.82
2019-03-26T11:15:48.382Z,26.82
2019-03-26T11:16:48.367Z,26.72
2019-03-26T11:17:48.375Z,26.42
2019-03-26T11:18:48.349Z,26.62
2019-03-26T11:19:48.350Z,26.32
2019-03-26T11:21:01.347Z,26.72
2019-03-26T11:21:49.313Z,26.72
2019-03-26T11:22:48.301Z,26.42
2019-03-26T11:23:48.309Z,26.82
2019-03-26T11:24:48.309Z,26.42
2019-03-26T11:25:48.276Z,26.42
2019-03-26T11:26:48.259Z,26.52
2019-03-26T11:27:48.244Z,27.02
2019-03-26T11:28:48.232Z,27.22
2019-03-26T11:29:48.227Z,26.22
2019-03-26T11:30:48.237Z,26.22
2019-03-26T11:31:48.223Z,26.82
2019-03-26T11:32:48.197Z,27.32
2019-03-26T11:33:48.183Z,26.82
2019-03-26T11:34:48.172Z,26.72
2019-03-26T11:35:48.167Z,26.32
2019-03-26T11:36:48.172Z,26.72
2019-03-26T11:37:48.167Z,26.72
2019-03-26T11:38:48.122Z,27.22
2019-03-26T11:39:48.110Z,27.22
2019-03-26T11:40:48.109Z,26.32
2019-03-26T11:41:48.087Z,26.42
2019-03-26T11:42:48.082Z,27.22
2019-03-26T11:43:48.098Z,27.20
2019-03-26T11:44:48.064Z,27.12
2019-03-26T11:45:48.085Z,26.72
2019-03-26T11:46:48.039Z,27.22
2019-03-26T11:47:48.109Z,27.22
2019-03-26T11:48:48.014Z,27.20
2019-03-26T11:49:48.011Z,27.20
2019-03-26T11:50:48.023Z,26.92
2019-03-26T11:51:47.982Z,26.90
2019-03-26T11:52:47.986Z,27.12
2019-03-26T11:53:47.956Z,27.00
2019-03-26T11:54:47.960Z,27.12
2019-03-26T11:55:47.997Z,27.12
2019-03-26T11:56:47.939Z,26.90
2019-03-26T11:57:47.916Z,26.70
2019-03-26T11:58:47.902Z,26.72
2019-03-26T11:59:47.891Z,26.52
2019-03-26T12:00:47.881Z,26.52
2019-03-26T12:01:47.886Z,26.12
2019-03-26T12:02:47.865Z,26.72
2019-03-26T12:03:47.863Z,26.22
2019-03-26T12:04:47.857Z,26.62
2019-03-26T12:05:47.844Z,26.72
2019-03-26T12:06:47.866Z,26.33
2019-03-26T12:07:47.827Z,26.62
2019-03-26T12:08:47.827Z,26.72
2019-03-26T12:09:47.807Z,26.42
2019-03-26T12:10:47.772Z,26.43
2019-03-26T12:11:47.764Z,26.93
2019-03-26T12:12:47.761Z,27.03
2019-03-26T12:13:47.770Z,26.73
2019-03-26T12:14:47.725Z,26.33
2019-03-26T12:15:47.717Z,27.23
2019-03-26T12:16:47.719Z,26.83
2019-03-26T12:17:47.699Z,27.13
2019-03-26T12:18:47.801Z,26.43
2019-03-26T12:19:47.677Z,26.63
2019-03-26T12:20:47.686Z,26.43
2019-03-26T12:21:47.655Z,26.73
2019-03-26T12:22:47.641Z,26.73
2019-03-26T12:23:47.632Z,26.33
2019-03-26T12:24:47.646Z,26.33
2019-03-26T12:25:47.617Z,27.13
2019-03-26T12:26:47.600Z,26.43
2019-03-26T12:27:47.582Z,26.23
2019-03-26T12:28:47.576Z,27.23
2019-03-26T12:29:47.582Z,26.73
2019-03-26T12:30:47.551Z,26.43
2019-03-26T12:31:47.544Z,26.43
2019-03-26T12:32:47.562Z,26.63
2019-03-26T12:33:47.526Z,26.63
2019-03-26T12:34:47.508Z,27.03
2019-03-26T12:35:47.507Z,26.43
2019-03-26T12:36:47.689Z,26.33
2019-03-26T12:37:47.478Z,26.43
2019-03-26T12:38:47.463Z,26.73
2019-03-26T12:39:58.982Z,27.23
2019-03-26T12:40:48.487Z,26.73
2019-03-26T12:41:47.452Z,26.83
2019-03-26T12:42:47.419Z,26.53
2019-03-26T12:43:47.408Z,26.83
2019-03-26T12:44:47.397Z,26.73
2019-03-26T12:45:47.383Z,26.63
2019-03-26T12:46:47.386Z,26.43
2019-03-26T12:47:47.401Z,26.53
2019-03-26T12:48:47.370Z,26.73
2019-03-26T12:49:47.337Z,26.63
2019-03-26T12:50:47.327Z,27.03
2019-03-26T12:51:47.323Z,26.63
2019-03-26T12:52:47.319Z,26.63